This is the latest recevied weather packets stored in our database for station/object WC4PEM-8. If no packets are shown the sender has not sent any weather packets the latest 10 day(s).
| Time | Temp. | Humidity | Pressure | Rain* | Wind** | Luminosity | Snow |
|---|---|---|---|---|---|---|---|
| 1777679468 | 28.89° C | 58% | 1009.8 hPa | 0 mm | - | - | - |
| 1777679168 | 28.89° C | 58% | 1009.9 hPa | 0 mm | - | - | - |
| 1777678932 | 28.89° C | 57% | 1009.9 hPa | 0 mm | - | - | - |
| 1777678868 | 28.89° C | 57% | 1009.9 hPa | 0 mm | - | - | - |
| 1777678568 | 29.44° C | 56% | 1009.7 hPa | 0 mm | - | - | - |
| 1777678268 | 29.44° C | 56% | 1009.7 hPa | 0 mm | - | - | - |
| 1777677968 | 29.44° C | 56% | 1009.7 hPa | 0 mm | - | - | - |
| 1777677801 | 29.44° C | 55% | 1009.6 hPa | 0 mm | - | - | - |
| 1777677668 | 29.44° C | 55% | 1009.6 hPa | 0 mm | - | - | - |
| 1777677368 | 30° C | 54% | 1009.6 hPa | 0 mm | - | - | - |
| 1777677068 | 30° C | 54% | 1009.6 hPa | 0 mm | - | - | - |
| 1777676768 | 30° C | 53% | 1009.5 hPa | 0 mm | - | - | - |
| 1777676643 | 31.11° C | 49% | 1009.2 hPa | 0 mm | - | - | - |
| 1777676468 | 30.56° C | 52% | 1009.5 hPa | 0 mm | - | - | - |
| 1777676168 | 30.56° C | 51% | 1009.5 hPa | 0 mm | - | - | - |
| 1777675868 | 31.11° C | 50% | 1009.4 hPa | 0 mm | - | - | - |
| 1777675568 | 31.11° C | 49% | 1009.4 hPa | 0 mm | - | - | - |
| 1777675426 | 31.11° C | 49% | 1009.3 hPa | 0 mm | - | - | - |
| 1777675268 | 31.11° C | 49% | 1009.3 hPa | 0 mm | - | - | - |
| 1777674968 | 31.11° C | 49% | 1009.2 hPa | 0 mm | - | - | - |
| 1777674668 | 31.11° C | 49% | 1009.2 hPa | 0 mm | - | - | - |
| 1777674386 | 31.11° C | 49% | 1009.2 hPa | 0 mm | - | - | - |
| 1777674204 | 31.67° C | 48% | 1009.1 hPa | 0 mm | - | - | - |
| 1777674069 | 31.67° C | 48% | 1009.1 hPa | 0 mm | - | - | - |
| 1777673768 | 31.67° C | 48% | 1009.1 hPa | 0 mm | - | - | - |
* Rain latest hour (hover to see other rain measurements)
** Current wind speed in m/s (hover to see current wind gust speed)